createdAt,value
2018-11-13T00:00:38.999Z,9.50
2018-11-13T00:03:07.075Z,9.13
2018-11-13T00:05:35.146Z,8.53
2018-11-13T00:08:03.221Z,9.87
2018-11-13T00:10:31.292Z,8.40
2018-11-13T00:12:59.666Z,8.97
2018-11-13T00:15:27.730Z,9.10
2018-11-13T00:17:55.803Z,8.27
2018-11-13T00:20:23.863Z,9.27
2018-11-13T00:22:51.958Z,9.03
2018-11-13T00:25:20.850Z,9.57
2018-11-13T00:27:48.917Z,8.50
2018-11-13T00:30:24.512Z,9.40
2018-11-13T00:32:52.610Z,8.70
2018-11-13T00:35:21.292Z,9.67
2018-11-13T00:37:49.886Z,8.93
2018-11-13T00:40:18.536Z,8.90
2018-11-13T00:42:47.118Z,9.13
2018-11-13T00:45:15.196Z,8.53
2018-11-13T00:47:43.274Z,9.00
2018-11-13T00:50:13.929Z,8.83
2018-11-13T00:52:42.820Z,8.57
2018-11-13T00:55:11.507Z,7.80
2018-11-13T00:57:39.778Z,8.50
2018-11-13T01:00:09.715Z,8.90
2018-11-13T01:02:37.894Z,9.57
2018-11-13T01:05:07.805Z,8.07
2018-11-13T01:07:35.849Z,7.77
2018-11-13T01:10:04.186Z,8.23
2018-11-13T01:12:32.302Z,7.93
2018-11-13T01:15:00.395Z,8.30
2018-11-13T01:17:28.523Z,8.90
2018-11-13T01:19:56.575Z,8.27
2018-11-13T01:22:24.663Z,7.60
2018-11-13T01:24:52.700Z,7.40
2018-11-13T01:27:20.778Z,7.63
2018-11-13T01:29:54.198Z,7.87
2018-11-13T01:32:22.400Z,8.60
2018-11-13T01:34:50.460Z,8.30
2018-11-13T01:37:18.527Z,7.10
2018-11-13T01:39:46.686Z,7.67
2018-11-13T01:42:14.928Z,8.03
2018-11-13T01:44:43.079Z,7.93
2018-11-13T01:47:11.139Z,7.43
2018-11-13T01:49:40.028Z,7.57
2018-11-13T01:52:07.679Z,7.37
2018-11-13T01:54:35.994Z,7.53
2018-11-13T01:57:04.730Z,6.87
2018-11-13T01:59:32.838Z,7.27
2018-11-13T02:02:00.953Z,7.87
2018-11-13T02:04:29.027Z,7.90
2018-11-13T02:06:57.112Z,7.27
2018-11-13T02:09:25.501Z,7.30
2018-11-13T02:11:53.563Z,6.97
2018-11-13T02:14:21.639Z,7.43
2018-11-13T02:16:49.714Z,7.10
2018-11-13T02:19:17.787Z,7.30
2018-11-13T02:21:46.070Z,7.97
2018-11-13T02:24:14.145Z,6.30
2018-11-13T02:26:42.315Z,7.47
2018-11-13T02:29:10.371Z,7.43
2018-11-13T02:31:38.430Z,6.90
2018-11-13T02:34:06.503Z,7.10
2018-11-13T02:36:34.579Z,7.57
2018-11-13T02:39:02.690Z,7.13
2018-11-13T02:41:30.743Z,7.50
2018-11-13T02:43:58.843Z,6.97
2018-11-13T02:46:26.915Z,6.90
2018-11-13T02:48:56.247Z,7.23
2018-11-13T02:51:24.351Z,7.73
2018-11-13T02:53:52.420Z,7.63
2018-11-13T02:56:20.491Z,7.23
2018-11-13T02:58:48.554Z,7.37
2018-11-13T03:01:16.626Z,7.37
2018-11-13T03:03:44.707Z,6.93
2018-11-13T03:06:12.771Z,7.53
2018-11-13T03:08:40.871Z,7.57
2018-11-13T03:11:08.953Z,7.70
2018-11-13T03:13:37.082Z,8.00
2018-11-13T03:16:05.507Z,8.40
2018-11-13T03:18:33.572Z,8.73
2018-11-13T03:21:01.639Z,9.43
2018-11-13T03:23:29.787Z,7.83
2018-11-13T03:25:58.194Z,8.20
2018-11-13T03:28:26.283Z,7.80
2018-11-13T03:30:54.389Z,8.77
2018-11-13T03:33:22.478Z,8.37
2018-11-13T03:35:50.563Z,8.73
2018-11-13T03:38:18.962Z,8.23
2018-11-13T03:40:47.039Z,8.33
2018-11-13T03:43:15.095Z,8.60
2018-11-13T03:45:43.163Z,9.37
2018-11-13T03:48:11.283Z,9.10
2018-11-13T03:50:39.570Z,9.87
2018-11-13T03:53:07.657Z,9.50
2018-11-13T03:55:35.777Z,9.63
2018-11-13T03:58:03.862Z,9.93
2018-11-13T04:00:31.919Z,10.43
2018-11-13T04:03:00.017Z,10.27
2018-11-13T04:05:28.118Z,9.43
2018-11-13T04:07:56.237Z,11.67
2018-11-13T04:10:24.835Z,10.17
2018-11-13T04:12:52.927Z,11.47
2018-11-13T04:15:22.605Z,10.83
2018-11-13T04:17:50.684Z,10.67
2018-11-13T04:20:19.891Z,10.47
2018-11-13T04:22:48.271Z,11.43
2018-11-13T04:25:16.415Z,11.70
2018-11-13T04:27:44.710Z,11.87
2018-11-13T04:30:14.343Z,11.30
2018-11-13T04:32:42.710Z,11.77
2018-11-13T04:35:12.110Z,11.63
2018-11-13T04:37:40.191Z,11.90
2018-11-13T04:40:11.408Z,11.90
2018-11-13T04:42:39.909Z,12.57
2018-11-13T04:45:09.527Z,13.60
2018-11-13T04:47:37.694Z,11.53
2018-11-13T04:50:07.241Z,11.77
2018-11-13T04:52:35.566Z,13.20
2018-11-13T04:55:03.739Z,12.07
2018-11-13T04:57:31.826Z,12.90
2018-11-13T04:59:59.895Z,13.13
2018-11-13T05:02:28.001Z,12.87
2018-11-13T05:04:56.319Z,12.67
2018-11-13T05:07:24.381Z,13.33
2018-11-13T05:09:52.915Z,13.60
2018-11-13T05:12:20.975Z,13.07
2018-11-13T05:14:49.034Z,13.60
2018-11-13T05:17:17.343Z,13.07
2018-11-13T05:19:45.443Z,13.40
2018-11-13T05:22:13.529Z,14.30
2018-11-13T05:24:41.602Z,14.20
2018-11-13T05:27:09.690Z,13.33
2018-11-13T05:29:37.774Z,13.77
2018-11-13T05:32:05.846Z,14.10
2018-11-13T05:34:33.919Z,14.63
2018-11-13T05:37:02.092Z,14.10
2018-11-13T05:39:30.182Z,14.17
2018-11-13T05:41:58.266Z,14.27
2018-11-13T05:44:26.367Z,14.37
2018-11-13T05:46:54.439Z,14.97
2018-11-13T05:49:22.523Z,13.43
2018-11-13T05:51:50.578Z,15.33
2018-11-13T05:54:19.086Z,14.07
2018-11-13T05:56:47.262Z,14.17
2018-11-13T05:59:15.342Z,14.87
2018-11-13T06:01:43.443Z,15.87
2018-11-13T06:04:11.519Z,14.60
2018-11-13T06:06:39.854Z,15.80
2018-11-13T06:09:08.666Z,14.63
2018-11-13T06:11:36.794Z,14.40
2018-11-13T06:14:05.438Z,14.73
2018-11-13T06:16:33.451Z,14.10
2018-11-13T06:19:01.549Z,14.67
2018-11-13T06:21:29.639Z,14.80
2018-11-13T06:23:57.713Z,15.50
2018-11-13T06:26:25.784Z,14.90
2018-11-13T06:28:53.875Z,14.67
2018-11-13T06:31:22.211Z,15.20
2018-11-13T06:33:50.293Z,14.40
2018-11-13T06:36:18.365Z,14.27
2018-11-13T06:38:46.533Z,14.23
2018-11-13T06:41:14.627Z,14.63
2018-11-13T06:43:42.987Z,13.83
2018-11-13T06:46:11.083Z,14.90
2018-11-13T06:48:39.158Z,13.67
2018-11-13T06:51:07.218Z,14.23
2018-11-13T06:53:46.424Z,13.70
2018-11-13T06:56:14.742Z,14.70
2018-11-13T06:58:42.806Z,13.17
2018-11-13T07:01:10.924Z,13.90
2018-11-13T07:03:39.004Z,14.03
2018-11-13T07:06:07.099Z,13.67
2018-11-13T07:08:35.160Z,13.37
2018-11-13T07:11:03.500Z,14.43
2018-11-13T07:13:31.675Z,12.67
2018-11-13T07:15:59.726Z,13.90
2018-11-13T07:18:27.961Z,12.67
2018-11-13T07:20:55.974Z,13.20
2018-11-13T07:23:24.094Z,13.53
2018-11-13T07:25:52.177Z,12.63
2018-11-13T07:28:20.308Z,11.47
2018-11-13T07:30:48.607Z,12.23
2018-11-13T07:33:16.698Z,13.27
2018-11-13T07:35:44.786Z,12.17
2018-11-13T07:38:12.854Z,12.43
2018-11-13T07:40:40.938Z,12.73
2018-11-13T07:43:09.015Z,11.63
2018-11-13T07:45:37.140Z,10.50
2018-11-13T07:48:05.594Z,10.80
2018-11-13T07:50:33.602Z,10.70
2018-11-13T07:53:01.697Z,10.73
2018-11-13T07:55:29.782Z,10.43
2018-11-13T07:57:57.846Z,10.67
2018-11-13T08:00:25.935Z,9.27
2018-11-13T08:02:55.250Z,9.37
2018-11-13T08:05:23.314Z,8.63
2018-11-13T08:07:51.431Z,8.63
2018-11-13T08:10:19.554Z,8.73
2018-11-13T08:12:47.777Z,8.43
2018-11-13T08:15:17.123Z,8.00
2018-11-13T08:17:45.502Z,7.70
2018-11-13T08:20:14.720Z,7.90
2018-11-13T08:22:43.403Z,6.93
2018-11-13T08:25:12.113Z,6.13
2018-11-13T08:27:40.911Z,6.63
2018-11-13T08:30:12.576Z,5.70
2018-11-13T08:32:40.645Z,5.53
2018-11-13T08:35:09.094Z,5.50
2018-11-13T08:37:37.115Z,5.03
2018-11-13T08:40:07.248Z,5.67
2018-11-13T08:42:35.318Z,4.23
2018-11-13T08:45:03.653Z,4.57
2018-11-13T08:47:31.875Z,4.03
2018-11-13T08:50:00.215Z,3.57
2018-11-13T08:52:28.634Z,4.33
2018-11-13T08:54:56.742Z,3.77
2018-11-13T08:57:24.851Z,3.40
2018-11-13T08:59:53.171Z,3.40
2018-11-13T09:02:21.330Z,3.37
2018-11-13T09:04:49.637Z,3.07
2018-11-13T09:07:17.940Z,3.40
2018-11-13T09:09:46.044Z,3.40
2018-11-13T09:12:14.152Z,3.33
2018-11-13T09:14:42.207Z,3.13
2018-11-13T09:17:10.548Z,3.27
2018-11-13T09:19:39.096Z,3.00
2018-11-13T09:22:07.008Z,2.20
2018-11-13T09:24:35.136Z,2.60
2018-11-13T09:27:03.231Z,2.47
2018-11-13T09:29:31.322Z,2.70
2018-11-13T09:31:59.439Z,3.07
2018-11-13T09:34:27.526Z,3.33
2018-11-13T09:36:55.614Z,2.53
2018-11-13T09:39:23.764Z,2.77
2018-11-13T09:41:51.794Z,2.57
2018-11-13T09:44:20.123Z,2.17
2018-11-13T09:46:48.215Z,2.70
2018-11-13T09:49:16.341Z,2.50
2018-11-13T09:51:44.454Z,2.17
2018-11-13T09:54:12.487Z,2.13
2018-11-13T09:56:40.810Z,2.03
2018-11-13T09:59:08.878Z,2.10
2018-11-13T10:01:37.411Z,2.00
2018-11-13T10:04:06.137Z,1.70
2018-11-13T10:06:33.443Z,1.70
2018-11-13T10:09:01.871Z,1.43
2018-11-13T10:11:29.980Z,1.67
2018-11-13T10:13:58.439Z,1.50
2018-11-13T10:16:26.538Z,1.40
2018-11-13T10:18:54.651Z,1.70
2018-11-13T10:21:22.710Z,1.40
2018-11-13T10:23:50.774Z,1.30
2018-11-13T10:26:19.035Z,1.60
2018-11-13T10:28:47.046Z,1.40
2018-11-13T10:31:15.150Z,1.70
2018-11-13T10:33:43.511Z,1.10
2018-11-13T10:36:11.587Z,1.17
2018-11-13T10:38:39.648Z,1.10
2018-11-13T10:41:07.903Z,1.50
2018-11-13T10:43:35.881Z,1.40
2018-11-13T10:46:04.355Z,1.17
2018-11-13T10:48:32.475Z,1.20
2018-11-13T10:51:00.602Z,1.37
2018-11-13T10:53:28.710Z,1.10
2018-11-13T10:55:57.885Z,1.20
2018-11-13T10:58:26.263Z,1.40
2018-11-13T11:00:59.304Z,1.30
2018-11-13T11:03:33.264Z,1.10
2018-11-13T11:06:01.339Z,1.37
2018-11-13T11:08:29.534Z,1.27
2018-11-13T11:10:57.594Z,1.10
2018-11-13T11:13:25.795Z,1.30
2018-11-13T11:15:53.792Z,1.10
2018-11-13T11:18:21.905Z,1.27
2018-11-13T11:20:50.004Z,1.40
2018-11-13T11:23:18.224Z,1.70
2018-11-13T11:25:46.298Z,1.97
2018-11-13T11:28:14.454Z,2.13
2018-11-13T11:30:42.474Z,1.97
2018-11-13T11:33:10.534Z,1.97
2018-11-13T11:35:38.607Z,1.90
2018-11-13T11:38:06.686Z,2.00
2018-11-13T11:40:35.032Z,2.07
2018-11-13T11:43:03.271Z,1.97
2018-11-13T11:45:31.356Z,2.10
2018-11-13T11:47:59.438Z,1.90
2018-11-13T11:50:27.502Z,1.63
2018-11-13T11:52:55.597Z,2.03
2018-11-13T11:55:23.704Z,1.90
2018-11-13T11:57:51.788Z,1.70
2018-11-13T12:00:24.161Z,1.80
2018-11-13T12:02:52.189Z,1.97
2018-11-13T12:05:20.267Z,1.93
2018-11-13T12:07:48.361Z,2.20
2018-11-13T12:10:16.441Z,1.67
2018-11-13T12:12:44.494Z,2.00
2018-11-13T12:15:13.507Z,1.80
2018-11-13T12:17:42.111Z,1.53
2018-11-13T12:20:11.595Z,1.63
2018-11-13T12:22:39.680Z,1.60
2018-11-13T12:25:09.688Z,1.77
2018-11-13T12:27:37.758Z,1.63
2018-11-13T12:30:09.314Z,1.50
2018-11-13T12:32:37.381Z,1.47
2018-11-13T12:35:06.139Z,1.50
2018-11-13T12:37:34.195Z,1.60
2018-11-13T12:40:02.411Z,1.83
2018-11-13T12:42:30.787Z,1.33
2018-11-13T12:44:58.854Z,1.80
2018-11-13T12:47:26.926Z,1.70
2018-11-13T12:49:55.196Z,1.20
2018-11-13T12:52:24.272Z,1.60
2018-11-13T12:54:51.370Z,1.33
2018-11-13T12:57:19.435Z,1.90
2018-11-13T12:59:47.528Z,1.40
2018-11-13T13:02:15.716Z,1.30
2018-11-13T13:04:43.683Z,1.20
2018-11-13T13:07:11.787Z,1.73
2018-11-13T13:09:39.878Z,1.40
2018-11-13T13:12:09.406Z,1.40
2018-11-13T13:14:37.527Z,2.00
2018-11-13T13:17:05.917Z,1.53
2018-11-13T13:19:33.997Z,1.80
2018-11-13T13:22:02.062Z,1.80
2018-11-13T13:24:30.132Z,1.53
2018-11-13T13:26:58.213Z,1.70
2018-11-13T13:29:33.356Z,1.10
2018-11-13T13:32:01.419Z,1.53
2018-11-13T13:34:29.493Z,1.50
2018-11-13T13:36:57.582Z,1.50
2018-11-13T13:39:25.654Z,1.50
2018-11-13T13:41:53.731Z,2.03
2018-11-13T13:44:21.799Z,2.10
2018-11-13T13:46:49.876Z,1.17
2018-11-13T13:49:17.939Z,1.47
2018-11-13T13:51:45.999Z,1.90
2018-11-13T13:54:14.148Z,1.93
2018-11-13T13:56:42.134Z,1.67
2018-11-13T13:59:10.207Z,1.40
2018-11-13T14:01:38.339Z,1.57
2018-11-13T14:04:06.401Z,1.50
2018-11-13T14:06:34.735Z,2.00
2018-11-13T14:09:02.958Z,1.67
2018-11-13T14:11:30.986Z,1.73
2018-11-13T14:13:59.055Z,1.73
2018-11-13T14:16:27.132Z,1.57
2018-11-13T14:18:55.229Z,1.50
2018-11-13T14:21:23.302Z,1.60
2018-11-13T14:23:51.380Z,2.07
2018-11-13T14:26:19.431Z,1.40
2018-11-13T14:28:47.562Z,1.60
2018-11-13T14:31:15.626Z,1.60
2018-11-13T14:33:43.711Z,1.83
2018-11-13T14:36:12.215Z,1.63
2018-11-13T14:38:40.315Z,1.83
2018-11-13T14:41:08.426Z,1.60
2018-11-13T14:43:36.515Z,2.07
2018-11-13T14:46:04.984Z,1.80
2018-11-13T14:48:33.386Z,1.80
2018-11-13T14:51:01.456Z,1.60
2018-11-13T14:53:29.552Z,1.40
2018-11-13T14:55:57.627Z,1.63
2018-11-13T14:58:25.697Z,1.50
2018-11-13T15:00:53.798Z,1.23
2018-11-13T15:03:21.881Z,1.73
2018-11-13T15:05:49.998Z,2.10
2018-11-13T15:08:18.069Z,1.63
2018-11-13T15:10:48.398Z,2.33
2018-11-13T15:13:16.794Z,1.90
2018-11-13T15:15:44.859Z,1.80
2018-11-13T15:18:13.431Z,2.40
2018-11-13T15:20:41.822Z,1.60
2018-11-13T15:23:10.703Z,1.80
2018-11-13T15:25:38.863Z,2.00
2018-11-13T15:28:07.549Z,1.77
2018-11-13T15:30:36.958Z,1.43
2018-11-13T15:33:07.877Z,1.83
2018-11-13T15:35:35.996Z,1.87
2018-11-13T15:38:04.095Z,2.23
2018-11-13T15:40:32.433Z,2.03
2018-11-13T15:43:00.515Z,2.13
2018-11-13T15:45:28.586Z,1.40
2018-11-13T15:47:57.792Z,2.13
2018-11-13T15:50:27.185Z,2.77
2018-11-13T15:52:55.490Z,2.20
2018-11-13T15:55:23.559Z,2.53
2018-11-13T15:57:51.902Z,1.90
2018-11-13T16:00:26.438Z,2.03
2018-11-13T16:02:55.133Z,1.73
2018-11-13T16:05:37.525Z,2.20
2018-11-13T16:08:06.424Z,2.23
2018-11-13T16:10:34.572Z,1.70
2018-11-13T16:13:02.778Z,2.40
2018-11-13T16:15:31.471Z,2.10
2018-11-13T16:18:00.794Z,1.75
2018-11-13T16:20:28.958Z,2.85
2018-11-13T16:22:57.163Z,2.43
2018-11-13T16:25:25.783Z,2.40
2018-11-13T16:27:54.159Z,2.13
2018-11-13T16:30:23.614Z,2.07
2018-11-13T16:32:52.255Z,1.83
2018-11-13T16:35:21.544Z,2.47
2018-11-13T16:37:50.043Z,2.17
2018-11-13T16:40:21.153Z,2.37
2018-11-13T16:42:49.222Z,2.10
2018-11-13T16:45:18.545Z,1.93
2018-11-13T16:47:46.755Z,1.83
2018-11-13T16:50:19.048Z,2.27
2018-11-13T16:52:47.224Z,2.13
2018-11-13T16:55:20.839Z,1.57
2018-11-13T16:57:49.968Z,2.37
2018-11-13T17:00:18.460Z,1.93
2018-11-13T17:02:46.559Z,2.33
2018-11-13T17:05:15.679Z,1.90
2018-11-13T17:07:43.734Z,2.50
2018-11-13T17:10:14.592Z,1.90
2018-11-13T17:12:42.907Z,2.40
2018-11-13T17:15:13.198Z,2.07
2018-11-13T17:17:41.267Z,2.13
2018-11-13T17:20:10.502Z,1.97
2018-11-13T17:22:39.509Z,2.90
2018-11-13T17:25:08.520Z,2.53
2018-11-13T17:27:37.691Z,2.10
2018-11-13T17:30:10.179Z,2.33
2018-11-13T17:32:38.260Z,3.00
2018-11-13T17:35:07.707Z,2.40
2018-11-13T17:37:35.802Z,2.70
2018-11-13T17:40:04.835Z,2.40
2018-11-13T17:42:32.906Z,2.13
2018-11-13T17:45:00.995Z,3.13
2018-11-13T17:47:29.404Z,3.20
2018-11-13T17:49:57.507Z,2.10
2018-11-13T17:52:25.607Z,2.10
2018-11-13T17:54:53.739Z,2.57
2018-11-13T17:57:21.806Z,2.87
2018-11-13T17:59:50.175Z,2.60
2018-11-13T18:02:18.250Z,2.70
2018-11-13T18:04:46.339Z,2.33
2018-11-13T18:07:14.410Z,2.50
2018-11-13T18:09:42.463Z,2.83
2018-11-13T18:12:10.554Z,2.90
2018-11-13T18:14:38.704Z,2.70
2018-11-13T18:17:06.724Z,2.77
2018-11-13T18:19:34.810Z,2.87
2018-11-13T18:22:03.086Z,2.90
2018-11-13T18:24:31.034Z,2.87
2018-11-13T18:26:59.179Z,2.83
2018-11-13T18:29:27.267Z,3.10
2018-11-13T18:31:55.354Z,3.13
2018-11-13T18:34:23.476Z,2.70
2018-11-13T18:36:51.615Z,2.47
2018-11-13T18:39:19.687Z,2.70
2018-11-13T18:41:47.886Z,3.07
2018-11-13T18:44:16.219Z,2.97
2018-11-13T18:46:44.459Z,3.77
2018-11-13T18:49:12.547Z,2.57
2018-11-13T18:51:40.727Z,4.00
2018-11-13T18:54:08.827Z,4.63
2018-11-13T18:56:37.406Z,3.47
2018-11-13T18:59:05.908Z,4.43
2018-11-13T19:01:34.104Z,4.03
2018-11-13T19:04:02.179Z,3.20
2018-11-13T19:06:31.429Z,3.47
2018-11-13T19:08:59.548Z,3.40
2018-11-13T19:11:27.662Z,3.27
2018-11-13T19:13:55.700Z,3.20
2018-11-13T19:16:23.798Z,3.13
2018-11-13T19:18:51.943Z,3.10
2018-11-13T19:21:20.304Z,3.27
2018-11-13T19:23:48.523Z,3.43
2018-11-13T19:26:16.567Z,3.10
2018-11-13T19:28:44.807Z,3.60
2018-11-13T19:31:12.940Z,3.33
2018-11-13T19:33:41.007Z,3.50
2018-11-13T19:36:09.293Z,3.27
2018-11-13T19:38:37.197Z,3.03
2018-11-13T19:41:05.303Z,3.40
2018-11-13T19:43:33.518Z,3.80
2018-11-13T19:46:01.633Z,4.90
2018-11-13T19:48:29.732Z,4.50
2018-11-13T19:50:57.803Z,3.77
2018-11-13T19:53:25.895Z,3.73
2018-11-13T19:55:54.002Z,3.23
2018-11-13T19:58:22.736Z,3.00
2018-11-13T20:00:50.932Z,3.47
2018-11-13T20:03:22.657Z,4.23
2018-11-13T20:05:50.808Z,3.73
2018-11-13T20:08:18.875Z,3.70
2018-11-13T20:10:47.801Z,3.50
2018-11-13T20:13:16.827Z,3.97
2018-11-13T20:15:44.966Z,3.80
2018-11-13T20:18:13.939Z,6.87
2018-11-13T20:20:42.136Z,11.63
2018-11-13T20:23:10.562Z,11.73
2018-11-13T20:25:39.468Z,9.23
2018-11-13T20:28:07.659Z,5.73
2018-11-13T20:30:39.692Z,5.20
2018-11-13T20:33:07.917Z,4.87
2018-11-13T20:35:35.976Z,4.67
2018-11-13T20:38:05.207Z,4.00
2018-11-13T20:40:34.439Z,4.50
2018-11-13T20:43:03.755Z,3.90
2018-11-13T20:45:31.847Z,3.70
2018-11-13T20:47:59.958Z,4.07
2018-11-13T20:50:29.391Z,4.10
2018-11-13T20:52:57.458Z,4.30
2018-11-13T20:55:25.538Z,4.57
2018-11-13T20:57:53.658Z,3.83
2018-11-13T21:00:27.273Z,3.47
2018-11-13T21:02:55.638Z,4.47
2018-11-13T21:05:23.962Z,4.63
2018-11-13T21:07:52.091Z,4.30
2018-11-13T21:10:21.422Z,4.17
2018-11-13T21:12:50.302Z,4.80
2018-11-13T21:15:20.631Z,4.67
2018-11-13T21:17:49.083Z,5.23
2018-11-13T21:20:18.232Z,4.93
2018-11-13T21:22:47.227Z,4.37
2018-11-13T21:25:21.644Z,6.07
2018-11-13T21:27:53.131Z,5.27
2018-11-13T21:30:22.250Z,4.70
2018-11-13T21:32:51.058Z,5.53
2018-11-13T21:35:19.198Z,6.03
2018-11-13T21:37:50.680Z,6.07
2018-11-13T21:40:20.101Z,5.60
2018-11-13T21:42:49.282Z,4.77
2018-11-13T21:45:18.398Z,5.47
2018-11-13T21:47:46.556Z,6.07
2018-11-13T21:50:16.095Z,5.73
2018-11-13T21:52:44.187Z,5.67
2018-11-13T21:55:14.222Z,5.10
2018-11-13T21:57:42.390Z,5.67
2018-11-13T22:00:18.828Z,6.20
2018-11-13T22:02:51.079Z,4.97
2018-11-13T22:05:19.979Z,7.03
2018-11-13T22:07:48.227Z,5.23
2018-11-13T22:10:16.343Z,5.33
2018-11-13T22:12:44.986Z,5.77
2018-11-13T22:15:13.723Z,5.60
2018-11-13T22:17:41.980Z,6.30
2018-11-13T22:20:11.591Z,5.63
2018-11-13T22:22:39.807Z,5.87
2018-11-13T22:25:10.806Z,7.80
2018-11-13T22:27:39.662Z,6.30
2018-11-13T22:30:09.011Z,5.67
2018-11-13T22:32:37.655Z,5.63
2018-11-13T22:35:06.882Z,4.97
2018-11-13T22:37:35.247Z,5.30
2018-11-13T22:40:03.587Z,7.60
2018-11-13T22:42:31.686Z,5.70
2018-11-13T22:44:59.755Z,5.83
2018-11-13T22:47:27.826Z,5.17
2018-11-13T22:49:55.954Z,6.17
2018-11-13T22:52:24.058Z,5.80
2018-11-13T22:54:52.139Z,6.17
2018-11-13T22:57:20.209Z,6.40
2018-11-13T22:59:49.041Z,5.70
2018-11-13T23:02:18.273Z,5.77
2018-11-13T23:04:46.880Z,5.60
2018-11-13T23:07:14.963Z,6.23
2018-11-13T23:09:43.031Z,6.77
2018-11-13T23:12:11.135Z,6.10
2018-11-13T23:14:39.176Z,6.77
2018-11-13T23:17:07.291Z,6.13
2018-11-13T23:19:35.404Z,6.73
2018-11-13T23:22:03.613Z,6.80
2018-11-13T23:24:31.690Z,6.53
2018-11-13T23:26:59.758Z,6.23
2018-11-13T23:29:27.817Z,6.97
2018-11-13T23:31:55.883Z,5.53
2018-11-13T23:34:24.007Z,6.13
2018-11-13T23:36:52.202Z,6.77
2018-11-13T23:39:20.267Z,6.53
2018-11-13T23:41:48.349Z,6.50
2018-11-13T23:44:16.455Z,6.73
2018-11-13T23:46:44.483Z,7.70
2018-11-13T23:49:12.557Z,6.80
2018-11-13T23:51:40.615Z,7.03
2018-11-13T23:54:08.691Z,6.63
2018-11-13T23:56:37.152Z,6.77
2018-11-13T23:59:04.887Z,6.07
